sensor_id;sensor_type;location;lat;lon;timestamp;P1;durP1;ratioP1;P2;durP2;ratioP2
71566;SDS011;59403;47.456;19.120;2024-03-06T00:01:10;38.90;;;18.98;;
71566;SDS011;59403;47.456;19.120;2024-03-06T00:03:38;37.53;;;19.40;;
71566;SDS011;59403;47.456;19.120;2024-03-06T00:06:05;41.27;;;18.73;;
71566;SDS011;59403;47.456;19.120;2024-03-06T00:08:32;36.80;;;17.70;;
71566;SDS011;59403;47.456;19.120;2024-03-06T00:10:58;40.17;;;17.85;;
71566;SDS011;59403;47.456;19.120;2024-03-06T00:13:25;37.97;;;17.45;;
71566;SDS011;59403;47.456;19.120;2024-03-06T00:15:51;35.30;;;17.37;;
71566;SDS011;59403;47.456;19.120;2024-03-06T00:18:18;32.60;;;17.10;;
71566;SDS011;59403;47.456;19.120;2024-03-06T00:20:46;35.33;;;17.40;;
71566;SDS011;59403;47.456;19.120;2024-03-06T00:23:13;33.78;;;16.95;;
71566;SDS011;59403;47.456;19.120;2024-03-06T00:25:39;37.55;;;18.23;;
71566;SDS011;59403;47.456;19.120;2024-03-06T00:28:06;38.22;;;17.83;;
71566;SDS011;59403;47.456;19.120;2024-03-06T00:30:32;38.60;;;18.47;;
71566;SDS011;59403;47.456;19.120;2024-03-06T00:32:59;34.80;;;18.12;;
71566;SDS011;59403;47.456;19.120;2024-03-06T00:35:25;37.95;;;18.90;;
71566;SDS011;59403;47.456;19.120;2024-03-06T00:37:55;38.58;;;18.25;;
71566;SDS011;59403;47.456;19.120;2024-03-06T00:40:21;38.72;;;18.67;;
71566;SDS011;59403;47.456;19.120;2024-03-06T00:42:48;38.23;;;18.67;;
71566;SDS011;59403;47.456;19.120;2024-03-06T00:45:15;41.22;;;19.50;;
71566;SDS011;59403;47.456;19.120;2024-03-06T00:47:41;37.67;;;19.20;;
71566;SDS011;59403;47.456;19.120;2024-03-06T00:50:08;39.10;;;18.40;;
71566;SDS011;59403;47.456;19.120;2024-03-06T00:52:35;39.17;;;18.23;;
71566;SDS011;59403;47.456;19.120;2024-03-06T00:55:04;34.30;;;17.43;;
71566;SDS011;59403;47.456;19.120;2024-03-06T00:57:31;37.42;;;18.00;;
71566;SDS011;59403;47.456;19.120;2024-03-06T00:59:58;38.22;;;18.83;;
71566;SDS011;59403;47.456;19.120;2024-03-06T01:02:25;40.03;;;18.73;;
71566;SDS011;59403;47.456;19.120;2024-03-06T01:04:51;36.15;;;18.77;;
71566;SDS011;59403;47.456;19.120;2024-03-06T01:07:18;37.20;;;17.73;;
71566;SDS011;59403;47.456;19.120;2024-03-06T01:09:45;38.70;;;17.15;;
71566;SDS011;59403;47.456;19.120;2024-03-06T01:12:13;32.47;;;16.58;;
71566;SDS011;59403;47.456;19.120;2024-03-06T01:14:40;38.90;;;18.10;;
71566;SDS011;59403;47.456;19.120;2024-03-06T01:17:07;36.17;;;17.83;;
71566;SDS011;59403;47.456;19.120;2024-03-06T01:19:34;35.47;;;17.37;;
71566;SDS011;59403;47.456;19.120;2024-03-06T01:22:00;36.33;;;16.90;;
71566;SDS011;59403;47.456;19.120;2024-03-06T01:24:27;39.08;;;18.83;;
71566;SDS011;59403;47.456;19.120;2024-03-06T01:26:53;36.90;;;17.48;;
71566;SDS011;59403;47.456;19.120;2024-03-06T01:29:21;37.95;;;17.87;;
71566;SDS011;59403;47.456;19.120;2024-03-06T01:31:48;37.23;;;18.03;;
71566;SDS011;59403;47.456;19.120;2024-03-06T01:34:15;36.65;;;17.62;;
71566;SDS011;59403;47.456;19.120;2024-03-06T01:36:41;34.55;;;16.50;;
71566;SDS011;59403;47.456;19.120;2024-03-06T01:39:08;37.47;;;17.90;;
71566;SDS011;59403;47.456;19.120;2024-03-06T01:41:35;35.70;;;17.25;;
71566;SDS011;59403;47.456;19.120;2024-03-06T01:44:01;36.73;;;17.83;;
71566;SDS011;59403;47.456;19.120;2024-03-06T01:46:29;36.58;;;18.52;;
71566;SDS011;59403;47.456;19.120;2024-03-06T01:48:56;37.25;;;18.10;;
71566;SDS011;59403;47.456;19.120;2024-03-06T01:51:23;38.15;;;17.92;;
71566;SDS011;59403;47.456;19.120;2024-03-06T01:53:49;37.80;;;17.92;;
71566;SDS011;59403;47.456;19.120;2024-03-06T01:56:16;40.13;;;18.37;;
71566;SDS011;59403;47.456;19.120;2024-03-06T01:58:43;34.83;;;17.40;;
71566;SDS011;59403;47.456;19.120;2024-03-06T02:03:48;34.78;;;17.85;;
71566;SDS011;59403;47.456;19.120;2024-03-06T02:06:15;37.38;;;16.85;;
71566;SDS011;59403;47.456;19.120;2024-03-06T02:08:44;37.43;;;18.20;;
71566;SDS011;59403;47.456;19.120;2024-03-06T02:11:11;32.85;;;17.58;;
71566;SDS011;59403;47.456;19.120;2024-03-06T02:13:38;34.00;;;17.25;;
71566;SDS011;59403;47.456;19.120;2024-03-06T02:16:06;34.30;;;15.80;;
71566;SDS011;59403;47.456;19.120;2024-03-06T02:18:33;34.10;;;16.98;;
71566;SDS011;59403;47.456;19.120;2024-03-06T02:21:01;37.03;;;17.70;;
71566;SDS011;59403;47.456;19.120;2024-03-06T02:23:29;32.90;;;16.92;;
71566;SDS011;59403;47.456;19.120;2024-03-06T02:25:56;37.13;;;18.35;;
71566;SDS011;59403;47.456;19.120;2024-03-06T02:28:23;34.10;;;15.73;;
71566;SDS011;59403;47.456;19.120;2024-03-06T02:30:50;33.33;;;16.65;;
71566;SDS011;59403;47.456;19.120;2024-03-06T02:33:17;34.07;;;16.67;;
71566;SDS011;59403;47.456;19.120;2024-03-06T02:35:44;35.60;;;17.85;;
71566;SDS011;59403;47.456;19.120;2024-03-06T02:38:12;34.58;;;16.90;;
71566;SDS011;59403;47.456;19.120;2024-03-06T02:40:39;37.20;;;17.48;;
71566;SDS011;59403;47.456;19.120;2024-03-06T02:43:05;34.25;;;16.50;;
71566;SDS011;59403;47.456;19.120;2024-03-06T02:45:32;35.37;;;17.33;;
71566;SDS011;59403;47.456;19.120;2024-03-06T02:47:59;34.50;;;17.87;;
71566;SDS011;59403;47.456;19.120;2024-03-06T02:50:25;35.05;;;16.42;;
71566;SDS011;59403;47.456;19.120;2024-03-06T02:52:52;38.00;;;18.02;;
71566;SDS011;59403;47.456;19.120;2024-03-06T02:55:21;33.72;;;16.10;;
71566;SDS011;59403;47.456;19.120;2024-03-06T02:57:49;33.43;;;16.10;;
71566;SDS011;59403;47.456;19.120;2024-03-06T03:00:16;33.33;;;16.55;;
71566;SDS011;59403;47.456;19.120;2024-03-06T03:02:43;35.90;;;18.10;;
71566;SDS011;59403;47.456;19.120;2024-03-06T03:05:09;35.10;;;16.92;;
71566;SDS011;59403;47.456;19.120;2024-03-06T03:07:36;35.00;;;16.95;;
71566;SDS011;59403;47.456;19.120;2024-03-06T03:10:02;32.50;;;16.63;;
71566;SDS011;59403;47.456;19.120;2024-03-06T03:12:32;31.62;;;16.08;;
71566;SDS011;59403;47.456;19.120;2024-03-06T03:14:59;35.92;;;17.00;;
71566;SDS011;59403;47.456;19.120;2024-03-06T03:17:25;33.35;;;17.00;;
71566;SDS011;59403;47.456;19.120;2024-03-06T03:19:52;35.80;;;16.87;;
71566;SDS011;59403;47.456;19.120;2024-03-06T03:22:19;37.37;;;17.37;;
71566;SDS011;59403;47.456;19.120;2024-03-06T03:24:46;33.13;;;16.00;;
71566;SDS011;59403;47.456;19.120;2024-03-06T03:27:13;35.15;;;17.10;;
71566;SDS011;59403;47.456;19.120;2024-03-06T03:29:40;35.75;;;16.70;;
71566;SDS011;59403;47.456;19.120;2024-03-06T03:32:07;35.28;;;16.55;;
71566;SDS011;59403;47.456;19.120;2024-03-06T03:34:34;33.93;;;15.90;;
71566;SDS011;59403;47.456;19.120;2024-03-06T03:37:00;35.47;;;17.42;;
71566;SDS011;59403;47.456;19.120;2024-03-06T03:39:27;38.45;;;17.98;;
71566;SDS011;59403;47.456;19.120;2024-03-06T03:41:54;35.75;;;17.15;;
71566;SDS011;59403;47.456;19.120;2024-03-06T03:44:20;35.28;;;16.45;;
71566;SDS011;59403;47.456;19.120;2024-03-06T03:46:48;34.23;;;16.87;;
71566;SDS011;59403;47.456;19.120;2024-03-06T03:49:16;33.53;;;16.48;;
71566;SDS011;59403;47.456;19.120;2024-03-06T03:51:42;35.95;;;17.23;;
71566;SDS011;59403;47.456;19.120;2024-03-06T03:54:09;36.78;;;16.98;;
71566;SDS011;59403;47.456;19.120;2024-03-06T03:56:35;35.80;;;16.75;;
71566;SDS011;59403;47.456;19.120;2024-03-06T03:59:02;33.67;;;16.73;;
71566;SDS011;59403;47.456;19.120;2024-03-06T04:01:29;34.25;;;16.45;;
71566;SDS011;59403;47.456;19.120;2024-03-06T04:03:57;37.88;;;17.58;;
71566;SDS011;59403;47.456;19.120;2024-03-06T04:06:23;38.88;;;16.98;;
71566;SDS011;59403;47.456;19.120;2024-03-06T04:08:50;40.15;;;17.85;;
71566;SDS011;59403;47.456;19.120;2024-03-06T04:11:17;37.57;;;17.00;;
71566;SDS011;59403;47.456;19.120;2024-03-06T04:13:43;36.67;;;16.83;;
71566;SDS011;59403;47.456;19.120;2024-03-06T04:16:15;34.53;;;16.77;;
71566;SDS011;59403;47.456;19.120;2024-03-06T04:18:42;34.67;;;16.60;;
71566;SDS011;59403;47.456;19.120;2024-03-06T04:21:10;38.83;;;16.92;;
71566;SDS011;59403;47.456;19.120;2024-03-06T04:23:36;36.30;;;18.27;;
71566;SDS011;59403;47.456;19.120;2024-03-06T04:26:03;38.35;;;16.83;;
71566;SDS011;59403;47.456;19.120;2024-03-06T04:28:31;32.13;;;16.55;;
71566;SDS011;59403;47.456;19.120;2024-03-06T04:30:58;37.63;;;16.70;;
71566;SDS011;59403;47.456;19.120;2024-03-06T04:33:24;38.88;;;17.98;;
71566;SDS011;59403;47.456;19.120;2024-03-06T04:35:51;39.37;;;18.33;;
71566;SDS011;59403;47.456;19.120;2024-03-06T04:38:19;38.20;;;17.27;;
71566;SDS011;59403;47.456;19.120;2024-03-06T04:40:46;38.17;;;17.73;;
71566;SDS011;59403;47.456;19.120;2024-03-06T04:43:12;38.22;;;18.45;;
71566;SDS011;59403;47.456;19.120;2024-03-06T04:45:39;41.00;;;17.55;;
71566;SDS011;59403;47.456;19.120;2024-03-06T04:48:06;39.20;;;18.17;;
71566;SDS011;59403;47.456;19.120;2024-03-06T04:50:33;40.10;;;19.33;;
71566;SDS011;59403;47.456;19.120;2024-03-06T04:53:00;45.47;;;18.92;;
71566;SDS011;59403;47.456;19.120;2024-03-06T04:55:28;40.58;;;18.00;;
71566;SDS011;59403;47.456;19.120;2024-03-06T04:57:55;39.58;;;18.30;;
71566;SDS011;59403;47.456;19.120;2024-03-06T05:00:22;41.00;;;20.67;;
71566;SDS011;59403;47.456;19.120;2024-03-06T05:02:49;44.60;;;20.10;;
71566;SDS011;59403;47.456;19.120;2024-03-06T05:05:16;54.88;;;22.10;;
71566;SDS011;59403;47.456;19.120;2024-03-06T05:07:42;46.17;;;21.67;;
71566;SDS011;59403;47.456;19.120;2024-03-06T05:10:09;44.42;;;22.27;;
71566;SDS011;59403;47.456;19.120;2024-03-06T05:12:37;45.47;;;21.87;;
71566;SDS011;59403;47.456;19.120;2024-03-06T05:15:04;46.35;;;22.73;;
71566;SDS011;59403;47.456;19.120;2024-03-06T05:17:33;46.35;;;21.83;;
71566;SDS011;59403;47.456;19.120;2024-03-06T05:20:00;48.00;;;21.37;;
71566;SDS011;59403;47.456;19.120;2024-03-06T05:22:28;39.95;;;20.33;;
71566;SDS011;59403;47.456;19.120;2024-03-06T05:24:55;44.83;;;20.97;;
71566;SDS011;59403;47.456;19.120;2024-03-06T05:27:23;42.38;;;20.70;;
71566;SDS011;59403;47.456;19.120;2024-03-06T05:29:51;50.90;;;22.48;;
71566;SDS011;59403;47.456;19.120;2024-03-06T05:32:18;48.03;;;22.13;;
71566;SDS011;59403;47.456;19.120;2024-03-06T05:34:44;46.28;;;21.67;;
71566;SDS011;59403;47.456;19.120;2024-03-06T05:37:11;47.07;;;22.27;;
71566;SDS011;59403;47.456;19.120;2024-03-06T05:39:37;48.10;;;21.87;;
71566;SDS011;59403;47.456;19.120;2024-03-06T05:42:04;44.33;;;21.83;;
71566;SDS011;59403;47.456;19.120;2024-03-06T05:44:31;44.10;;;21.87;;
71566;SDS011;59403;47.456;19.120;2024-03-06T05:47:00;48.03;;;21.15;;
71566;SDS011;59403;47.456;19.120;2024-03-06T05:49:28;50.43;;;23.33;;
71566;SDS011;59403;47.456;19.120;2024-03-06T05:51:55;49.10;;;21.30;;
71566;SDS011;59403;47.456;19.120;2024-03-06T05:54:22;49.50;;;22.17;;
71566;SDS011;59403;47.456;19.120;2024-03-06T05:56:49;45.83;;;21.33;;
71566;SDS011;59403;47.456;19.120;2024-03-06T05:59:18;42.03;;;21.08;;
71566;SDS011;59403;47.456;19.120;2024-03-06T06:01:45;44.43;;;20.40;;
71566;SDS011;59403;47.456;19.120;2024-03-06T06:04:13;48.28;;;20.90;;
71566;SDS011;59403;47.456;19.120;2024-03-06T06:06:40;47.47;;;22.35;;
71566;SDS011;59403;47.456;19.120;2024-03-06T06:09:07;43.30;;;21.25;;
71566;SDS011;59403;47.456;19.120;2024-03-06T06:11:37;51.58;;;20.25;;
71566;SDS011;59403;47.456;19.120;2024-03-06T06:14:04;47.53;;;21.57;;
71566;SDS011;59403;47.456;19.120;2024-03-06T06:16:34;48.42;;;21.50;;
71566;SDS011;59403;47.456;19.120;2024-03-06T06:19:01;45.53;;;20.80;;
71566;SDS011;59403;47.456;19.120;2024-03-06T06:21:30;46.33;;;21.75;;
71566;SDS011;59403;47.456;19.120;2024-03-06T06:23:56;49.00;;;21.85;;
71566;SDS011;59403;47.456;19.120;2024-03-06T06:26:23;48.30;;;22.10;;
71566;SDS011;59403;47.456;19.120;2024-03-06T06:28:49;46.53;;;20.48;;
71566;SDS011;59403;47.456;19.120;2024-03-06T06:31:16;49.58;;;22.17;;
71566;SDS011;59403;47.456;19.120;2024-03-06T06:33:43;44.38;;;20.75;;
71566;SDS011;59403;47.456;19.120;2024-03-06T06:36:11;48.83;;;21.50;;
71566;SDS011;59403;47.456;19.120;2024-03-06T06:38:39;48.53;;;21.90;;
71566;SDS011;59403;47.456;19.120;2024-03-06T06:41:05;47.75;;;21.40;;
71566;SDS011;59403;47.456;19.120;2024-03-06T06:43:32;44.42;;;20.88;;
71566;SDS011;59403;47.456;19.120;2024-03-06T06:45:59;43.97;;;20.52;;
71566;SDS011;59403;47.456;19.120;2024-03-06T06:48:26;45.95;;;20.12;;
71566;SDS011;59403;47.456;19.120;2024-03-06T06:50:53;43.77;;;21.00;;
71566;SDS011;59403;47.456;19.120;2024-03-06T06:53:19;45.38;;;21.25;;
71566;SDS011;59403;47.456;19.120;2024-03-06T06:55:47;47.50;;;21.08;;
71566;SDS011;59403;47.456;19.120;2024-03-06T06:58:14;43.67;;;19.77;;
71566;SDS011;59403;47.456;19.120;2024-03-06T07:00:41;48.90;;;21.17;;
71566;SDS011;59403;47.456;19.120;2024-03-06T07:03:07;45.93;;;20.90;;
71566;SDS011;59403;47.456;19.120;2024-03-06T07:05:34;46.63;;;21.10;;
71566;SDS011;59403;47.456;19.120;2024-03-06T07:08:00;42.03;;;21.40;;
71566;SDS011;59403;47.456;19.120;2024-03-06T07:10:27;45.67;;;21.95;;
71566;SDS011;59403;47.456;19.120;2024-03-06T07:12:57;45.08;;;22.98;;
71566;SDS011;59403;47.456;19.120;2024-03-06T07:15:24;42.37;;;19.57;;
71566;SDS011;59403;47.456;19.120;2024-03-06T07:17:51;48.03;;;20.75;;
71566;SDS011;59403;47.456;19.120;2024-03-06T07:20:18;39.00;;;20.52;;
71566;SDS011;59403;47.456;19.120;2024-03-06T07:22:45;43.33;;;20.52;;
71566;SDS011;59403;47.456;19.120;2024-03-06T07:25:11;40.20;;;19.62;;
71566;SDS011;59403;47.456;19.120;2024-03-06T07:27:38;41.30;;;19.30;;
71566;SDS011;59403;47.456;19.120;2024-03-06T07:30:07;40.78;;;19.70;;
71566;SDS011;59403;47.456;19.120;2024-03-06T07:32:36;39.00;;;19.60;;
71566;SDS011;59403;47.456;19.120;2024-03-06T07:35:02;37.75;;;19.48;;
71566;SDS011;59403;47.456;19.120;2024-03-06T07:37:31;36.13;;;18.70;;
71566;SDS011;59403;47.456;19.120;2024-03-06T07:39:58;37.53;;;18.03;;
71566;SDS011;59403;47.456;19.120;2024-03-06T07:42:25;37.17;;;17.42;;
71566;SDS011;59403;47.456;19.120;2024-03-06T07:44:52;35.42;;;17.95;;
71566;SDS011;59403;47.456;19.120;2024-03-06T07:47:20;37.33;;;17.92;;
71566;SDS011;59403;47.456;19.120;2024-03-06T07:49:47;33.33;;;17.50;;
71566;SDS011;59403;47.456;19.120;2024-03-06T07:52:15;37.80;;;17.50;;
71566;SDS011;59403;47.456;19.120;2024-03-06T07:54:42;31.95;;;17.17;;
71566;SDS011;59403;47.456;19.120;2024-03-06T07:57:08;35.10;;;17.20;;
71566;SDS011;59403;47.456;19.120;2024-03-06T07:59:35;32.22;;;17.08;;
71566;SDS011;59403;47.456;19.120;2024-03-06T08:02:02;32.00;;;16.77;;
71566;SDS011;59403;47.456;19.120;2024-03-06T08:04:31;34.00;;;16.60;;
71566;SDS011;59403;47.456;19.120;2024-03-06T08:06:57;29.23;;;15.77;;
71566;SDS011;59403;47.456;19.120;2024-03-06T08:09:24;39.67;;;19.33;;
71566;SDS011;59403;47.456;19.120;2024-03-06T08:11:53;29.17;;;16.10;;
71566;SDS011;59403;47.456;19.120;2024-03-06T08:14:20;26.73;;;14.10;;
71566;SDS011;59403;47.456;19.120;2024-03-06T08:16:47;29.57;;;14.87;;
71566;SDS011;59403;47.456;19.120;2024-03-06T08:19:13;27.98;;;14.07;;
71566;SDS011;59403;47.456;19.120;2024-03-06T08:21:41;27.25;;;14.80;;
71566;SDS011;59403;47.456;19.120;2024-03-06T08:24:08;23.75;;;12.95;;
71566;SDS011;59403;47.456;19.120;2024-03-06T08:26:35;24.40;;;14.23;;
71566;SDS011;59403;47.456;19.120;2024-03-06T08:29:02;24.50;;;14.80;;
71566;SDS011;59403;47.456;19.120;2024-03-06T08:31:29;25.23;;;14.82;;
71566;SDS011;59403;47.456;19.120;2024-03-06T08:33:56;27.48;;;15.10;;
71566;SDS011;59403;47.456;19.120;2024-03-06T08:36:23;24.35;;;12.88;;
71566;SDS011;59403;47.456;19.120;2024-03-06T08:38:51;25.60;;;13.50;;
71566;SDS011;59403;47.456;19.120;2024-03-06T08:41:18;27.40;;;14.63;;
71566;SDS011;59403;47.456;19.120;2024-03-06T08:43:45;27.58;;;14.02;;
71566;SDS011;59403;47.456;19.120;2024-03-06T08:46:11;21.62;;;13.05;;
71566;SDS011;59403;47.456;19.120;2024-03-06T08:48:38;19.85;;;12.07;;
71566;SDS011;59403;47.456;19.120;2024-03-06T08:51:05;19.58;;;11.98;;
71566;SDS011;59403;47.456;19.120;2024-03-06T08:53:35;23.50;;;13.43;;
71566;SDS011;59403;47.456;19.120;2024-03-06T08:56:04;26.50;;;13.62;;
71566;SDS011;59403;47.456;19.120;2024-03-06T08:58:31;22.20;;;12.70;;
71566;SDS011;59403;47.456;19.120;2024-03-06T09:00:58;24.67;;;13.50;;
71566;SDS011;59403;47.456;19.120;2024-03-06T09:03:25;25.20;;;14.07;;
71566;SDS011;59403;47.456;19.120;2024-03-06T09:05:51;22.60;;;13.93;;
71566;SDS011;59403;47.456;19.120;2024-03-06T09:08:18;22.62;;;13.52;;
71566;SDS011;59403;47.456;19.120;2024-03-06T09:10:45;24.08;;;12.85;;
71566;SDS011;59403;47.456;19.120;2024-03-06T09:13:13;20.75;;;12.37;;
71566;SDS011;59403;47.456;19.120;2024-03-06T09:15:40;21.50;;;12.40;;
71566;SDS011;59403;47.456;19.120;2024-03-06T09:18:06;23.53;;;13.30;;
71566;SDS011;59403;47.456;19.120;2024-03-06T09:20:33;21.92;;;12.40;;
71566;SDS011;59403;47.456;19.120;2024-03-06T09:23:00;22.00;;;12.98;;
71566;SDS011;59403;47.456;19.120;2024-03-06T09:25:26;20.88;;;12.02;;
71566;SDS011;59403;47.456;19.120;2024-03-06T09:27:53;16.83;;;10.27;;
71566;SDS011;59403;47.456;19.120;2024-03-06T09:30:21;18.60;;;10.57;;
71566;SDS011;59403;47.456;19.120;2024-03-06T09:32:48;18.12;;;11.45;;
71566;SDS011;59403;47.456;19.120;2024-03-06T09:35:15;20.50;;;11.25;;
71566;SDS011;59403;47.456;19.120;2024-03-06T09:37:42;18.48;;;11.57;;
71566;SDS011;59403;47.456;19.120;2024-03-06T09:40:11;19.27;;;11.60;;
71566;SDS011;59403;47.456;19.120;2024-03-06T09:42:47;20.10;;;11.40;;
71566;SDS011;59403;47.456;19.120;2024-03-06T09:45:14;18.48;;;11.73;;
71566;SDS011;59403;47.456;19.120;2024-03-06T09:47:42;18.73;;;10.45;;
71566;SDS011;59403;47.456;19.120;2024-03-06T09:50:09;18.48;;;10.48;;
71566;SDS011;59403;47.456;19.120;2024-03-06T09:52:36;19.90;;;11.73;;
71566;SDS011;59403;47.456;19.120;2024-03-06T09:55:11;23.05;;;11.73;;
71566;SDS011;59403;47.456;19.120;2024-03-06T09:57:39;20.58;;;11.60;;
71566;SDS011;59403;47.456;19.120;2024-03-06T10:00:06;21.30;;;10.98;;
71566;SDS011;59403;47.456;19.120;2024-03-06T10:02:37;17.65;;;10.70;;
71566;SDS011;59403;47.456;19.120;2024-03-06T10:05:06;17.83;;;11.75;;
71566;SDS011;59403;47.456;19.120;2024-03-06T10:07:47;17.65;;;10.30;;
71566;SDS011;59403;47.456;19.120;2024-03-06T10:10:14;19.35;;;10.30;;
71566;SDS011;59403;47.456;19.120;2024-03-06T10:12:41;20.10;;;10.63;;
71566;SDS011;59403;47.456;19.120;2024-03-06T10:15:09;16.58;;;10.85;;
71566;SDS011;59403;47.456;19.120;2024-03-06T10:17:37;15.48;;;10.05;;
71566;SDS011;59403;47.456;19.120;2024-03-06T10:20:12;16.40;;;9.57;;
71566;SDS011;59403;47.456;19.120;2024-03-06T10:22:45;17.17;;;10.35;;
71566;SDS011;59403;47.456;19.120;2024-03-06T10:25:12;18.98;;;9.43;;
71566;SDS011;59403;47.456;19.120;2024-03-06T10:27:39;17.45;;;9.40;;
71566;SDS011;59403;47.456;19.120;2024-03-06T10:30:07;21.77;;;11.88;;
71566;SDS011;59403;47.456;19.120;2024-03-06T10:32:36;21.37;;;11.43;;
71566;SDS011;59403;47.456;19.120;2024-03-06T10:35:03;19.85;;;12.23;;
71566;SDS011;59403;47.456;19.120;2024-03-06T10:37:33;18.52;;;10.95;;
71566;SDS011;59403;47.456;19.120;2024-03-06T10:40:02;17.65;;;10.15;;
71566;SDS011;59403;47.456;19.120;2024-03-06T10:42:31;14.70;;;9.10;;
71566;SDS011;59403;47.456;19.120;2024-03-06T10:44:59;15.67;;;8.87;;
71566;SDS011;59403;47.456;19.120;2024-03-06T10:47:27;16.67;;;9.60;;
71566;SDS011;59403;47.456;19.120;2024-03-06T10:49:54;17.77;;;8.77;;
71566;SDS011;59403;47.456;19.120;2024-03-06T10:52:25;14.07;;;9.43;;
71566;SDS011;59403;47.456;19.120;2024-03-06T10:54:55;16.27;;;9.25;;
71566;SDS011;59403;47.456;19.120;2024-03-06T10:57:25;16.40;;;8.93;;
71566;SDS011;59403;47.456;19.120;2024-03-06T10:59:52;18.58;;;9.75;;
71566;SDS011;59403;47.456;19.120;2024-03-06T11:02:19;16.00;;;9.45;;
71566;SDS011;59403;47.456;19.120;2024-03-06T11:04:48;19.08;;;9.88;;
71566;SDS011;59403;47.456;19.120;2024-03-06T11:07:16;18.33;;;10.15;;
71566;SDS011;59403;47.456;19.120;2024-03-06T11:09:43;19.02;;;11.27;;
71566;SDS011;59403;47.456;19.120;2024-03-06T11:12:14;14.30;;;9.65;;
71566;SDS011;59403;47.456;19.120;2024-03-06T11:14:58;15.43;;;9.68;;
71566;SDS011;59403;47.456;19.120;2024-03-06T11:17:26;16.35;;;9.23;;
71566;SDS011;59403;47.456;19.120;2024-03-06T11:20:08;17.30;;;9.77;;
71566;SDS011;59403;47.456;19.120;2024-03-06T11:28:25;14.32;;;9.77;;
71566;SDS011;59403;47.456;19.120;2024-03-06T11:30:55;12.70;;;8.27;;
71566;SDS011;59403;47.456;19.120;2024-03-06T11:33:23;15.98;;;8.82;;
71566;SDS011;59403;47.456;19.120;2024-03-06T11:36:12;14.48;;;9.40;;
71566;SDS011;59403;47.456;19.120;2024-03-06T11:38:42;17.30;;;8.52;;
71566;SDS011;59403;47.456;19.120;2024-03-06T11:41:09;14.98;;;8.70;;
71566;SDS011;59403;47.456;19.120;2024-03-06T11:43:43;16.17;;;8.25;;
71566;SDS011;59403;47.456;19.120;2024-03-06T11:46:09;15.68;;;8.68;;
71566;SDS011;59403;47.456;19.120;2024-03-06T11:48:37;14.93;;;8.88;;
71566;SDS011;59403;47.456;19.120;2024-03-06T11:51:03;14.87;;;9.68;;
71566;SDS011;59403;47.456;19.120;2024-03-06T11:53:30;16.92;;;9.68;;
71566;SDS011;59403;47.456;19.120;2024-03-06T11:55:59;15.38;;;9.23;;
71566;SDS011;59403;47.456;19.120;2024-03-06T11:58:26;16.17;;;10.07;;
71566;SDS011;59403;47.456;19.120;2024-03-06T12:00:54;18.67;;;11.43;;
71566;SDS011;59403;47.456;19.120;2024-03-06T12:03:21;18.02;;;10.70;;
71566;SDS011;59403;47.456;19.120;2024-03-06T12:05:50;17.98;;;11.30;;
71566;SDS011;59403;47.456;19.120;2024-03-06T12:08:17;18.45;;;9.95;;
71566;SDS011;59403;47.456;19.120;2024-03-06T12:10:45;15.88;;;9.82;;
71566;SDS011;59403;47.456;19.120;2024-03-06T12:13:12;17.45;;;10.00;;
71566;SDS011;59403;47.456;19.120;2024-03-06T12:15:42;20.42;;;11.02;;
71566;SDS011;59403;47.456;19.120;2024-03-06T12:18:10;16.05;;;10.38;;
71566;SDS011;59403;47.456;19.120;2024-03-06T12:20:40;16.15;;;9.85;;
71566;SDS011;59403;47.456;19.120;2024-03-06T12:23:18;16.30;;;10.77;;
71566;SDS011;59403;47.456;19.120;2024-03-06T12:25:46;17.75;;;10.35;;
71566;SDS011;59403;47.456;19.120;2024-03-06T12:28:12;16.42;;;10.68;;
71566;SDS011;59403;47.456;19.120;2024-03-06T12:30:40;18.62;;;10.55;;
71566;SDS011;59403;47.456;19.120;2024-03-06T12:33:08;15.32;;;10.32;;
71566;SDS011;59403;47.456;19.120;2024-03-06T12:35:39;16.98;;;10.80;;
71566;SDS011;59403;47.456;19.120;2024-03-06T12:38:11;18.73;;;10.32;;
71566;SDS011;59403;47.456;19.120;2024-03-06T12:40:38;14.75;;;10.00;;
71566;SDS011;59403;47.456;19.120;2024-03-06T12:43:05;16.70;;;10.10;;
71566;SDS011;59403;47.456;19.120;2024-03-06T12:45:32;14.50;;;9.57;;
71566;SDS011;59403;47.456;19.120;2024-03-06T12:47:59;15.75;;;9.75;;
71566;SDS011;59403;47.456;19.120;2024-03-06T12:50:27;15.68;;;9.68;;
71566;SDS011;59403;47.456;19.120;2024-03-06T12:52:54;18.02;;;10.10;;
71566;SDS011;59403;47.456;19.120;2024-03-06T12:55:20;16.02;;;9.02;;
71566;SDS011;59403;47.456;19.120;2024-03-06T12:57:47;17.95;;;10.07;;
71566;SDS011;59403;47.456;19.120;2024-03-06T13:00:15;18.30;;;10.30;;
71566;SDS011;59403;47.456;19.120;2024-03-06T13:02:42;17.30;;;9.73;;
71566;SDS011;59403;47.456;19.120;2024-03-06T13:05:09;20.10;;;11.18;;
71566;SDS011;59403;47.456;19.120;2024-03-06T13:07:37;18.90;;;11.12;;
71566;SDS011;59403;47.456;19.120;2024-03-06T13:10:04;19.12;;;11.02;;
71566;SDS011;59403;47.456;19.120;2024-03-06T13:12:35;17.33;;;11.30;;
71566;SDS011;59403;47.456;19.120;2024-03-06T13:15:02;20.70;;;11.77;;
71566;SDS011;59403;47.456;19.120;2024-03-06T13:17:29;17.42;;;10.93;;
71566;SDS011;59403;47.456;19.120;2024-03-06T13:19:57;15.68;;;10.88;;
71566;SDS011;59403;47.456;19.120;2024-03-06T13:22:26;17.17;;;10.25;;
71566;SDS011;59403;47.456;19.120;2024-03-06T13:24:54;20.33;;;11.12;;
71566;SDS011;59403;47.456;19.120;2024-03-06T13:27:22;13.82;;;9.77;;
71566;SDS011;59403;47.456;19.120;2024-03-06T13:30:11;15.68;;;9.52;;
71566;SDS011;59403;47.456;19.120;2024-03-06T13:32:39;21.37;;;10.63;;
71566;SDS011;59403;47.456;19.120;2024-03-06T13:35:07;16.80;;;10.13;;
71566;SDS011;59403;47.456;19.120;2024-03-06T13:37:37;16.00;;;9.95;;
71566;SDS011;59403;47.456;19.120;2024-03-06T13:40:10;16.65;;;10.55;;
71566;SDS011;59403;47.456;19.120;2024-03-06T13:42:43;15.85;;;10.57;;
71566;SDS011;59403;47.456;19.120;2024-03-06T13:45:12;19.02;;;11.05;;
71566;SDS011;59403;47.456;19.120;2024-03-06T13:47:41;13.80;;;9.93;;
71566;SDS011;59403;47.456;19.120;2024-03-06T13:50:09;16.37;;;10.48;;
71566;SDS011;59403;47.456;19.120;2024-03-06T13:52:37;17.10;;;9.88;;
71566;SDS011;59403;47.456;19.120;2024-03-06T13:58:00;11.80;;;4.78;;
71566;SDS011;59403;47.456;19.120;2024-03-06T14:00:47;5.65;;;2.80;;
71566;SDS011;59403;47.456;19.120;2024-03-06T14:03:15;8.30;;;3.05;;
71566;SDS011;59403;47.456;19.120;2024-03-06T14:05:49;6.05;;;2.55;;
71566;SDS011;59403;47.456;19.120;2024-03-06T14:08:16;5.00;;;2.03;;
71566;SDS011;59403;47.456;19.120;2024-03-06T14:10:44;8.05;;;2.60;;
71566;SDS011;59403;47.456;19.120;2024-03-06T14:13:11;6.03;;;3.03;;
71566;SDS011;59403;47.456;19.120;2024-03-06T14:15:37;5.30;;;2.95;;
71566;SDS011;59403;47.456;19.120;2024-03-06T14:18:06;4.57;;;3.10;;
71566;SDS011;59403;47.456;19.120;2024-03-06T14:20:34;6.53;;;3.55;;
71566;SDS011;59403;47.456;19.120;2024-03-06T14:23:05;6.10;;;3.10;;
71566;SDS011;59403;47.456;19.120;2024-03-06T14:25:32;5.22;;;2.87;;